sensor_id;sensor_type;location;lat;lon;timestamp;P1;durP1;ratioP1;P2;durP2;ratioP2
13267;SDS011;6702;47.068;15.458;2023-02-18T00:00:07;18.20;;;12.20;;
13267;SDS011;6702;47.068;15.458;2023-02-18T00:03:14;18.80;;;12.70;;
13267;SDS011;6702;47.068;15.458;2023-02-18T00:06:18;17.53;;;13.00;;
13267;SDS011;6702;47.068;15.458;2023-02-18T00:09:22;19.87;;;14.13;;
13267;SDS011;6702;47.068;15.458;2023-02-18T00:12:26;14.70;;;11.87;;
13267;SDS011;6702;47.068;15.458;2023-02-18T00:15:31;16.27;;;11.83;;
13267;SDS011;6702;47.068;15.458;2023-02-18T00:18:36;19.03;;;14.10;;
13267;SDS011;6702;47.068;15.458;2023-02-18T00:21:39;20.00;;;13.70;;
13267;SDS011;6702;47.068;15.458;2023-02-18T00:24:43;16.47;;;12.33;;
13267;SDS011;6702;47.068;15.458;2023-02-18T00:27:46;13.67;;;11.50;;
13267;SDS011;6702;47.068;15.458;2023-02-18T00:30:51;15.70;;;10.90;;
13267;SDS011;6702;47.068;15.458;2023-02-18T00:33:55;14.13;;;11.13;;
13267;SDS011;6702;47.068;15.458;2023-02-18T00:36:59;16.83;;;12.23;;
13267;SDS011;6702;47.068;15.458;2023-02-18T00:40:02;13.87;;;12.27;;
13267;SDS011;6702;47.068;15.458;2023-02-18T00:43:06;14.73;;;12.20;;
13267;SDS011;6702;47.068;15.458;2023-02-18T00:46:11;15.70;;;12.37;;
13267;SDS011;6702;47.068;15.458;2023-02-18T00:49:15;13.53;;;11.23;;
13267;SDS011;6702;47.068;15.458;2023-02-18T00:52:18;16.53;;;11.30;;
13267;SDS011;6702;47.068;15.458;2023-02-18T00:55:21;15.77;;;10.90;;
13267;SDS011;6702;47.068;15.458;2023-02-18T00:58:24;13.80;;;10.37;;
13267;SDS011;6702;47.068;15.458;2023-02-18T01:01:29;10.97;;;9.13;;
13267;SDS011;6702;47.068;15.458;2023-02-18T01:04:33;15.13;;;10.60;;
13267;SDS011;6702;47.068;15.458;2023-02-18T01:07:36;14.47;;;10.40;;
13267;SDS011;6702;47.068;15.458;2023-02-18T01:10:40;11.57;;;10.33;;
13267;SDS011;6702;47.068;15.458;2023-02-18T01:13:44;13.13;;;8.50;;
13267;SDS011;6702;47.068;15.458;2023-02-18T01:16:48;12.77;;;9.30;;
13267;SDS011;6702;47.068;15.458;2023-02-18T01:19:52;10.83;;;8.63;;
13267;SDS011;6702;47.068;15.458;2023-02-18T01:22:55;10.00;;;8.50;;
13267;SDS011;6702;47.068;15.458;2023-02-18T01:25:58;10.90;;;7.50;;
13267;SDS011;6702;47.068;15.458;2023-02-18T01:29:01;8.00;;;7.20;;
13267;SDS011;6702;47.068;15.458;2023-02-18T01:32:06;9.73;;;7.63;;
13267;SDS011;6702;47.068;15.458;2023-02-18T01:35:10;8.23;;;7.40;;
13267;SDS011;6702;47.068;15.458;2023-02-18T01:38:15;9.40;;;7.73;;
13267;SDS011;6702;47.068;15.458;2023-02-18T01:41:18;15.47;;;7.97;;
13267;SDS011;6702;47.068;15.458;2023-02-18T01:44:22;10.77;;;7.63;;
13267;SDS011;6702;47.068;15.458;2023-02-18T01:47:28;9.60;;;7.70;;
13267;SDS011;6702;47.068;15.458;2023-02-18T01:50:33;9.43;;;8.40;;
13267;SDS011;6702;47.068;15.458;2023-02-18T01:53:40;8.47;;;7.60;;
13267;SDS011;6702;47.068;15.458;2023-02-18T01:56:50;8.73;;;7.37;;
13267;SDS011;6702;47.068;15.458;2023-02-18T01:59:57;7.97;;;7.17;;
13267;SDS011;6702;47.068;15.458;2023-02-18T02:03:06;7.80;;;7.00;;
13267;SDS011;6702;47.068;15.458;2023-02-18T02:06:13;8.03;;;6.80;;
13267;SDS011;6702;47.068;15.458;2023-02-18T02:09:18;9.33;;;7.63;;
13267;SDS011;6702;47.068;15.458;2023-02-18T02:12:32;7.33;;;6.50;;
13267;SDS011;6702;47.068;15.458;2023-02-18T02:15:46;8.63;;;7.43;;
13267;SDS011;6702;47.068;15.458;2023-02-18T02:18:57;8.83;;;6.83;;
13267;SDS011;6702;47.068;15.458;2023-02-18T02:29:55;7.50;;;6.70;;
13267;SDS011;6702;47.068;15.458;2023-02-18T02:33:37;7.20;;;6.50;;
13267;SDS011;6702;47.068;15.458;2023-02-18T02:37:13;6.57;;;5.97;;
13267;SDS011;6702;47.068;15.458;2023-02-18T02:40:27;8.20;;;5.77;;
13267;SDS011;6702;47.068;15.458;2023-02-18T02:43:38;7.27;;;6.63;;
13267;SDS011;6702;47.068;15.458;2023-02-18T02:46:50;9.00;;;5.80;;
13267;SDS011;6702;47.068;15.458;2023-02-18T02:49:56;8.33;;;6.10;;
13267;SDS011;6702;47.068;15.458;2023-02-18T02:53:05;6.73;;;5.70;;
13267;SDS011;6702;47.068;15.458;2023-02-18T02:56:16;8.70;;;6.57;;
13267;SDS011;6702;47.068;15.458;2023-02-18T02:59:21;6.77;;;5.80;;
13267;SDS011;6702;47.068;15.458;2023-02-18T03:02:28;10.03;;;5.30;;
13267;SDS011;6702;47.068;15.458;2023-02-18T03:05:42;9.67;;;6.10;;
13267;SDS011;6702;47.068;15.458;2023-02-18T03:08:59;5.70;;;5.17;;
13267;SDS011;6702;47.068;15.458;2023-02-18T03:12:11;8.87;;;6.60;;
13267;SDS011;6702;47.068;15.458;2023-02-18T03:15:23;7.30;;;5.60;;
13267;SDS011;6702;47.068;15.458;2023-02-18T03:18:33;11.20;;;6.73;;
13267;SDS011;6702;47.068;15.458;2023-02-18T03:21:41;8.03;;;6.37;;
13267;SDS011;6702;47.068;15.458;2023-02-18T03:24:49;7.83;;;7.03;;
13267;SDS011;6702;47.068;15.458;2023-02-18T03:27:55;7.80;;;6.57;;
13267;SDS011;6702;47.068;15.458;2023-02-18T03:31:03;9.10;;;6.60;;
13267;SDS011;6702;47.068;15.458;2023-02-18T03:34:12;8.83;;;6.23;;
13267;SDS011;6702;47.068;15.458;2023-02-18T03:37:18;7.60;;;6.30;;
13267;SDS011;6702;47.068;15.458;2023-02-18T03:40:23;6.33;;;5.73;;
13267;SDS011;6702;47.068;15.458;2023-02-18T03:43:27;8.43;;;6.13;;
13267;SDS011;6702;47.068;15.458;2023-02-18T03:46:30;7.30;;;5.80;;
13267;SDS011;6702;47.068;15.458;2023-02-18T03:49:34;7.80;;;5.90;;
13267;SDS011;6702;47.068;15.458;2023-02-18T03:52:38;9.50;;;6.30;;
13267;SDS011;6702;47.068;15.458;2023-02-18T03:55:42;9.50;;;6.10;;
13267;SDS011;6702;47.068;15.458;2023-02-18T03:58:45;9.87;;;6.67;;
13267;SDS011;6702;47.068;15.458;2023-02-18T04:01:49;7.03;;;6.40;;
13267;SDS011;6702;47.068;15.458;2023-02-18T04:04:52;8.63;;;6.20;;
13267;SDS011;6702;47.068;15.458;2023-02-18T04:07:55;8.70;;;7.17;;
13267;SDS011;6702;47.068;15.458;2023-02-18T04:11:00;7.23;;;6.27;;
13267;SDS011;6702;47.068;15.458;2023-02-18T04:14:03;7.53;;;5.70;;
13267;SDS011;6702;47.068;15.458;2023-02-18T04:17:07;8.60;;;6.37;;
13267;SDS011;6702;47.068;15.458;2023-02-18T04:20:10;7.00;;;5.73;;
13267;SDS011;6702;47.068;15.458;2023-02-18T04:23:14;6.03;;;5.33;;
13267;SDS011;6702;47.068;15.458;2023-02-18T04:26:18;6.93;;;6.23;;
13267;SDS011;6702;47.068;15.458;2023-02-18T04:29:22;8.30;;;6.13;;
13267;SDS011;6702;47.068;15.458;2023-02-18T04:32:25;5.80;;;5.20;;
13267;SDS011;6702;47.068;15.458;2023-02-18T04:35:28;7.77;;;5.90;;
13267;SDS011;6702;47.068;15.458;2023-02-18T04:38:32;5.90;;;5.20;;
13267;SDS011;6702;47.068;15.458;2023-02-18T04:41:36;14.23;;;5.80;;
13267;SDS011;6702;47.068;15.458;2023-02-18T04:44:39;5.83;;;5.33;;
13267;SDS011;6702;47.068;15.458;2023-02-18T04:47:43;6.13;;;5.53;;
13267;SDS011;6702;47.068;15.458;2023-02-18T04:50:46;5.80;;;5.17;;
13267;SDS011;6702;47.068;15.458;2023-02-18T04:53:49;6.90;;;5.00;;
13267;SDS011;6702;47.068;15.458;2023-02-18T04:56:54;5.77;;;4.33;;
13267;SDS011;6702;47.068;15.458;2023-02-18T04:59:57;5.67;;;4.90;;
13267;SDS011;6702;47.068;15.458;2023-02-18T05:03:00;6.67;;;4.83;;
13267;SDS011;6702;47.068;15.458;2023-02-18T05:06:03;5.50;;;4.77;;
13267;SDS011;6702;47.068;15.458;2023-02-18T05:09:08;7.27;;;6.00;;
13267;SDS011;6702;47.068;15.458;2023-02-18T05:12:12;9.67;;;5.13;;
13267;SDS011;6702;47.068;15.458;2023-02-18T05:15:15;5.60;;;5.10;;
13267;SDS011;6702;47.068;15.458;2023-02-18T05:18:19;7.27;;;5.70;;
13267;SDS011;6702;47.068;15.458;2023-02-18T05:21:22;8.77;;;5.17;;
13267;SDS011;6702;47.068;15.458;2023-02-18T05:24:25;7.53;;;5.23;;
13267;SDS011;6702;47.068;15.458;2023-02-18T05:27:30;6.60;;;5.63;;
13267;SDS011;6702;47.068;15.458;2023-02-18T05:30:33;5.93;;;5.33;;
13267;SDS011;6702;47.068;15.458;2023-02-18T05:33:36;5.93;;;5.37;;
13267;SDS011;6702;47.068;15.458;2023-02-18T05:36:39;7.10;;;5.97;;
13267;SDS011;6702;47.068;15.458;2023-02-18T05:39:43;7.03;;;5.93;;
13267;SDS011;6702;47.068;15.458;2023-02-18T05:42:47;6.30;;;5.50;;
13267;SDS011;6702;47.068;15.458;2023-02-18T05:45:51;6.87;;;6.00;;
13267;SDS011;6702;47.068;15.458;2023-02-18T05:48:54;7.33;;;5.77;;
13267;SDS011;6702;47.068;15.458;2023-02-18T05:51:57;9.03;;;5.30;;
13267;SDS011;6702;47.068;15.458;2023-02-18T05:55:00;7.80;;;5.87;;
13267;SDS011;6702;47.068;15.458;2023-02-18T05:58:05;7.13;;;6.47;;
13267;SDS011;6702;47.068;15.458;2023-02-18T06:01:08;8.63;;;5.50;;
13267;SDS011;6702;47.068;15.458;2023-02-18T06:04:11;7.77;;;6.40;;
13267;SDS011;6702;47.068;15.458;2023-02-18T06:07:15;6.23;;;5.63;;
13267;SDS011;6702;47.068;15.458;2023-02-18T06:10:20;7.47;;;6.13;;
13267;SDS011;6702;47.068;15.458;2023-02-18T06:13:25;8.70;;;5.20;;
13267;SDS011;6702;47.068;15.458;2023-02-18T06:16:28;9.20;;;5.30;;
13267;SDS011;6702;47.068;15.458;2023-02-18T06:19:32;5.07;;;4.57;;
13267;SDS011;6702;47.068;15.458;2023-02-18T06:22:35;5.60;;;4.33;;
13267;SDS011;6702;47.068;15.458;2023-02-18T06:25:39;8.23;;;4.60;;
13267;SDS011;6702;47.068;15.458;2023-02-18T06:28:43;7.03;;;5.70;;
13267;SDS011;6702;47.068;15.458;2023-02-18T06:31:46;6.10;;;4.90;;
13267;SDS011;6702;47.068;15.458;2023-02-18T06:34:50;7.13;;;6.30;;
13267;SDS011;6702;47.068;15.458;2023-02-18T06:37:53;6.80;;;5.40;;
13267;SDS011;6702;47.068;15.458;2023-02-18T06:40:56;9.53;;;5.77;;
13267;SDS011;6702;47.068;15.458;2023-02-18T06:44:01;9.13;;;6.40;;
13267;SDS011;6702;47.068;15.458;2023-02-18T06:47:04;9.17;;;5.93;;
13267;SDS011;6702;47.068;15.458;2023-02-18T06:50:08;10.17;;;6.33;;
13267;SDS011;6702;47.068;15.458;2023-02-18T06:53:11;9.53;;;6.23;;
13267;SDS011;6702;47.068;15.458;2023-02-18T06:56:15;6.70;;;6.00;;
13267;SDS011;6702;47.068;15.458;2023-02-18T06:59:20;10.40;;;6.07;;
13267;SDS011;6702;47.068;15.458;2023-02-18T07:02:23;11.23;;;6.50;;
13267;SDS011;6702;47.068;15.458;2023-02-18T07:05:26;7.13;;;5.83;;
13267;SDS011;6702;47.068;15.458;2023-02-18T07:08:30;7.57;;;6.00;;
13267;SDS011;6702;47.068;15.458;2023-02-18T07:11:36;5.97;;;5.47;;
13267;SDS011;6702;47.068;15.458;2023-02-18T07:14:41;5.53;;;5.03;;
13267;SDS011;6702;47.068;15.458;2023-02-18T07:17:44;6.03;;;5.53;;
13267;SDS011;6702;47.068;15.458;2023-02-18T07:20:47;8.13;;;5.43;;
13267;SDS011;6702;47.068;15.458;2023-02-18T07:23:51;5.97;;;5.30;;
13267;SDS011;6702;47.068;15.458;2023-02-18T07:26:54;6.50;;;5.07;;
13267;SDS011;6702;47.068;15.458;2023-02-18T07:29:58;7.90;;;5.57;;
13267;SDS011;6702;47.068;15.458;2023-02-18T07:33:02;5.93;;;5.30;;
13267;SDS011;6702;47.068;15.458;2023-02-18T07:36:05;5.93;;;5.23;;
13267;SDS011;6702;47.068;15.458;2023-02-18T07:39:10;8.10;;;6.00;;
13267;SDS011;6702;47.068;15.458;2023-02-18T07:42:13;9.27;;;5.50;;
13267;SDS011;6702;47.068;15.458;2023-02-18T07:45:18;5.90;;;5.07;;
13267;SDS011;6702;47.068;15.458;2023-02-18T07:48:21;6.00;;;5.23;;
13267;SDS011;6702;47.068;15.458;2023-02-18T07:51:24;6.60;;;4.60;;
13267;SDS011;6702;47.068;15.458;2023-02-18T07:54:28;6.03;;;5.43;;
13267;SDS011;6702;47.068;15.458;2023-02-18T07:57:31;4.60;;;4.20;;
13267;SDS011;6702;47.068;15.458;2023-02-18T08:00:56;5.57;;;5.07;;
13267;SDS011;6702;47.068;15.458;2023-02-18T08:03:59;6.20;;;5.63;;
13267;SDS011;6702;47.068;15.458;2023-02-18T08:07:03;5.73;;;5.13;;
13267;SDS011;6702;47.068;15.458;2023-02-18T08:10:06;6.70;;;6.00;;
13267;SDS011;6702;47.068;15.458;2023-02-18T08:13:10;7.97;;;6.50;;
13267;SDS011;6702;47.068;15.458;2023-02-18T08:16:14;13.50;;;7.20;;
13267;SDS011;6702;47.068;15.458;2023-02-18T08:19:18;10.60;;;7.10;;
13267;SDS011;6702;47.068;15.458;2023-02-18T08:22:22;8.87;;;6.63;;
13267;SDS011;6702;47.068;15.458;2023-02-18T08:25:25;7.30;;;5.60;;
13267;SDS011;6702;47.068;15.458;2023-02-18T08:28:30;7.53;;;6.30;;
13267;SDS011;6702;47.068;15.458;2023-02-18T08:31:35;10.33;;;7.20;;
13267;SDS011;6702;47.068;15.458;2023-02-18T08:34:38;7.23;;;6.43;;
13267;SDS011;6702;47.068;15.458;2023-02-18T08:37:41;11.93;;;6.67;;
13267;SDS011;6702;47.068;15.458;2023-02-18T08:40:59;8.80;;;8.00;;
13267;SDS011;6702;47.068;15.458;2023-02-18T08:44:04;8.30;;;7.43;;
13267;SDS011;6702;47.068;15.458;2023-02-18T08:47:08;6.40;;;5.80;;
13267;SDS011;6702;47.068;15.458;2023-02-18T08:50:32;7.90;;;5.90;;
13267;SDS011;6702;47.068;15.458;2023-02-18T08:53:36;9.10;;;7.27;;
13267;SDS011;6702;47.068;15.458;2023-02-18T08:56:39;10.40;;;7.37;;
13267;SDS011;6702;47.068;15.458;2023-02-18T08:59:43;10.40;;;6.70;;
13267;SDS011;6702;47.068;15.458;2023-02-18T09:02:48;10.03;;;7.93;;
13267;SDS011;6702;47.068;15.458;2023-02-18T09:05:51;8.87;;;6.83;;
13267;SDS011;6702;47.068;15.458;2023-02-18T09:08:54;8.70;;;7.77;;
13267;SDS011;6702;47.068;15.458;2023-02-18T09:11:57;10.80;;;7.23;;
13267;SDS011;6702;47.068;15.458;2023-02-18T09:15:01;17.80;;;9.40;;
13267;SDS011;6702;47.068;15.458;2023-02-18T09:18:06;11.53;;;9.17;;
13267;SDS011;6702;47.068;15.458;2023-02-18T09:21:10;9.33;;;8.40;;
13267;SDS011;6702;47.068;15.458;2023-02-18T09:24:14;9.17;;;8.30;;
13267;SDS011;6702;47.068;15.458;2023-02-18T09:27:17;8.20;;;7.50;;
13267;SDS011;6702;47.068;15.458;2023-02-18T09:30:21;9.50;;;8.53;;
13267;SDS011;6702;47.068;15.458;2023-02-18T09:33:25;9.53;;;8.20;;
13267;SDS011;6702;47.068;15.458;2023-02-18T09:36:29;9.60;;;8.30;;
13267;SDS011;6702;47.068;15.458;2023-02-18T09:39:32;9.07;;;8.20;;
13267;SDS011;6702;47.068;15.458;2023-02-18T09:42:35;9.97;;;8.60;;
13267;SDS011;6702;47.068;15.458;2023-02-18T09:45:39;9.37;;;8.43;;
13267;SDS011;6702;47.068;15.458;2023-02-18T09:48:43;9.00;;;8.10;;
13267;SDS011;6702;47.068;15.458;2023-02-18T09:51:49;9.83;;;8.83;;
13267;SDS011;6702;47.068;15.458;2023-02-18T09:54:53;9.20;;;8.40;;
13267;SDS011;6702;47.068;15.458;2023-02-18T09:57:58;11.00;;;9.87;;
13267;SDS011;6702;47.068;15.458;2023-02-18T10:01:04;9.77;;;8.90;;
13267;SDS011;6702;47.068;15.458;2023-02-18T10:04:15;10.60;;;9.63;;
13267;SDS011;6702;47.068;15.458;2023-02-18T10:07:22;9.77;;;8.90;;
13267;SDS011;6702;47.068;15.458;2023-02-18T10:10:32;8.57;;;7.95;;
13267;SDS011;6702;47.068;15.458;2023-02-18T10:13:39;9.90;;;9.00;;
13267;SDS011;6702;47.068;15.458;2023-02-18T10:16:43;11.07;;;8.90;;
13267;SDS011;6702;47.068;15.458;2023-02-18T10:19:49;8.93;;;8.13;;
13267;SDS011;6702;47.068;15.458;2023-02-18T10:22:54;9.70;;;8.80;;
13267;SDS011;6702;47.068;15.458;2023-02-18T10:26:00;10.68;;;9.70;;
13267;SDS011;6702;47.068;15.458;2023-02-18T10:29:08;9.85;;;8.82;;
13267;SDS011;6702;47.068;15.458;2023-02-18T10:32:20;11.98;;;9.75;;
13267;SDS011;6702;47.068;15.458;2023-02-18T10:35:28;8.98;;;8.15;;
13267;SDS011;6702;47.068;15.458;2023-02-18T10:38:40;8.20;;;7.38;;
13267;SDS011;6702;47.068;15.458;2023-02-18T10:42:05;8.23;;;7.43;;
13267;SDS011;6702;47.068;15.458;2023-02-18T10:45:21;9.32;;;7.40;;
13267;SDS011;6702;47.068;15.458;2023-02-18T10:48:35;7.70;;;7.15;;
13267;SDS011;6702;47.068;15.458;2023-02-18T10:51:55;7.70;;;7.10;;
13267;SDS011;6702;47.068;15.458;2023-02-18T10:55:02;8.15;;;7.55;;
13267;SDS011;6702;47.068;15.458;2023-02-18T11:01:27;7.32;;;6.63;;
13267;SDS011;6702;47.068;15.458;2023-02-18T11:04:33;6.70;;;6.20;;
13267;SDS011;6702;47.068;15.458;2023-02-18T11:07:41;7.03;;;6.43;;
13267;SDS011;6702;47.068;15.458;2023-02-18T11:10:50;7.60;;;6.13;;
13267;SDS011;6702;47.068;15.458;2023-02-18T11:13:55;7.15;;;6.53;;
13267;SDS011;6702;47.068;15.458;2023-02-18T11:17:06;7.45;;;6.75;;
13267;SDS011;6702;47.068;15.458;2023-02-18T11:20:22;8.45;;;7.75;;
13267;SDS011;6702;47.068;15.458;2023-02-18T11:23:29;9.93;;;9.07;;
13267;SDS011;6702;47.068;15.458;2023-02-18T11:26:33;10.38;;;9.32;;
13267;SDS011;6702;47.068;15.458;2023-02-18T11:29:38;9.63;;;8.77;;
13267;SDS011;6702;47.068;15.458;2023-02-18T11:32:41;9.45;;;8.75;;
13267;SDS011;6702;47.068;15.458;2023-02-18T11:35:47;10.23;;;9.52;;
13267;SDS011;6702;47.068;15.458;2023-02-18T11:38:54;9.98;;;8.98;;
13267;SDS011;6702;47.068;15.458;2023-02-18T11:42:00;10.02;;;9.32;;
13267;SDS011;6702;47.068;15.458;2023-02-18T11:45:24;10.43;;;9.52;;
13267;SDS011;6702;47.068;15.458;2023-02-18T11:48:29;10.00;;;9.20;;
13267;SDS011;6702;47.068;15.458;2023-02-18T11:51:33;10.45;;;9.55;;
13267;SDS011;6702;47.068;15.458;2023-02-18T11:54:39;10.35;;;9.20;;
13267;SDS011;6702;47.068;15.458;2023-02-18T11:57:43;10.98;;;9.88;;
13267;SDS011;6702;47.068;15.458;2023-02-18T12:00:50;12.00;;;9.95;;
13267;SDS011;6702;47.068;15.458;2023-02-18T12:03:58;10.00;;;9.20;;
13267;SDS011;6702;47.068;15.458;2023-02-18T12:07:11;10.57;;;9.65;;
13267;SDS011;6702;47.068;15.458;2023-02-18T12:10:21;10.85;;;10.02;;
13267;SDS011;6702;47.068;15.458;2023-02-18T12:13:30;13.75;;;10.63;;
13267;SDS011;6702;47.068;15.458;2023-02-18T12:16:37;10.30;;;9.27;;
13267;SDS011;6702;47.068;15.458;2023-02-18T12:19:52;9.65;;;8.85;;
13267;SDS011;6702;47.068;15.458;2023-02-18T12:23:04;10.93;;;9.73;;
13267;SDS011;6702;47.068;15.458;2023-02-18T12:26:19;9.35;;;8.55;;
13267;SDS011;6702;47.068;15.458;2023-02-18T12:29:36;8.82;;;8.13;;
13267;SDS011;6702;47.068;15.458;2023-02-18T12:32:51;9.10;;;8.25;;
13267;SDS011;6702;47.068;15.458;2023-02-18T12:36:02;9.27;;;8.38;;
13267;SDS011;6702;47.068;15.458;2023-02-18T12:39:14;8.80;;;8.10;;
13267;SDS011;6702;47.068;15.458;2023-02-18T12:42:37;15.00;;;8.77;;
13267;SDS011;6702;47.068;15.458;2023-02-18T12:45:57;9.10;;;8.30;;
13267;SDS011;6702;47.068;15.458;2023-02-18T12:52:58;8.38;;;7.78;;
13267;SDS011;6702;47.068;15.458;2023-02-18T12:56:22;8.60;;;7.95;;
13267;SDS011;6702;47.068;15.458;2023-02-18T13:00:06;9.35;;;8.55;;
13267;SDS011;6702;47.068;15.458;2023-02-18T13:10:43;10.50;;;9.60;;
13267;SDS011;6702;47.068;15.458;2023-02-18T13:14:07;10.82;;;9.32;;
13267;SDS011;6702;47.068;15.458;2023-02-18T13:17:15;10.18;;;9.38;;
13267;SDS011;6702;47.068;15.458;2023-02-18T13:20:22;10.15;;;9.15;;
13267;SDS011;6702;47.068;15.458;2023-02-18T13:23:31;9.32;;;8.52;;
13267;SDS011;6702;47.068;15.458;2023-02-18T13:26:38;9.93;;;9.02;;
13267;SDS011;6702;47.068;15.458;2023-02-18T13:29:46;9.57;;;8.77;;
13267;SDS011;6702;47.068;15.458;2023-02-18T13:32:59;8.93;;;8.23;;
13267;SDS011;6702;47.068;15.458;2023-02-18T13:36:11;9.77;;;8.80;;
13267;SDS011;6702;47.068;15.458;2023-02-18T13:39:24;9.63;;;8.77;;
13267;SDS011;6702;47.068;15.458;2023-02-18T13:42:35;10.40;;;9.60;;
13267;SDS011;6702;47.068;15.458;2023-02-18T13:45:39;10.82;;;9.93;;
13267;SDS011;6702;47.068;15.458;2023-02-18T13:48:44;10.65;;;9.43;;
13267;SDS011;6702;47.068;15.458;2023-02-18T13:51:53;10.75;;;9.70;;
13267;SDS011;6702;47.068;15.458;2023-02-18T13:54:57;11.05;;;9.95;;
13267;SDS011;6702;47.068;15.458;2023-02-18T13:58:01;9.98;;;9.15;;
13267;SDS011;6702;47.068;15.458;2023-02-18T14:01:06;10.95;;;9.95;;
13267;SDS011;6702;47.068;15.458;2023-02-18T14:08:05;10.32;;;9.40;;
13267;SDS011;6702;47.068;15.458;2023-02-18T14:11:24;10.25;;;9.32;;
13267;SDS011;6702;47.068;15.458;2023-02-18T14:14:43;10.67;;;9.77;;
13267;SDS011;6702;47.068;15.458;2023-02-18T14:17:55;9.67;;;8.87;;
13267;SDS011;6702;47.068;15.458;2023-02-18T14:21:19;10.00;;;9.17;;
13267;SDS011;6702;47.068;15.458;2023-02-18T14:24:46;11.70;;;10.60;;
13267;SDS011;6702;47.068;15.458;2023-02-18T14:27:51;12.30;;;10.23;;
13267;SDS011;6702;47.068;15.458;2023-02-18T14:30:56;10.90;;;9.90;;
13267;SDS011;6702;47.068;15.458;2023-02-18T14:34:08;10.87;;;9.87;;
13267;SDS011;6702;47.068;15.458;2023-02-18T14:38:08;10.13;;;9.13;;
13267;SDS011;6702;47.068;15.458;2023-02-18T14:41:38;9.77;;;8.87;;
13267;SDS011;6702;47.068;15.458;2023-02-18T14:44:54;11.10;;;10.00;;
13267;SDS011;6702;47.068;15.458;2023-02-18T14:48:16;9.67;;;8.63;;
13267;SDS011;6702;47.068;15.458;2023-02-18T14:51:33;10.60;;;9.50;;
13267;SDS011;6702;47.068;15.458;2023-02-18T14:54:37;10.97;;;9.90;;
13267;SDS011;6702;47.068;15.458;2023-02-18T14:57:45;10.57;;;9.60;;
13267;SDS011;6702;47.068;15.458;2023-02-18T15:00:52;11.43;;;10.37;;
13267;SDS011;6702;47.068;15.458;2023-02-18T15:03:57;11.00;;;9.90;;
13267;SDS011;6702;47.068;15.458;2023-02-18T15:07:02;11.80;;;10.33;;
13267;SDS011;6702;47.068;15.458;2023-02-18T15:10:13;10.27;;;9.23;;
13267;SDS011;6702;47.068;15.458;2023-02-18T15:13:20;11.60;;;10.40;;
13267;SDS011;6702;47.068;15.458;2023-02-18T15:16:29;10.57;;;9.37;;
13267;SDS011;6702;47.068;15.458;2023-02-18T15:19:36;10.43;;;9.37;;
13267;SDS011;6702;47.068;15.458;2023-02-18T15:22:43;11.63;;;10.03;;
13267;SDS011;6702;47.068;15.458;2023-02-18T15:25:49;11.23;;;10.10;;
13267;SDS011;6702;47.068;15.458;2023-02-18T15:28:59;9.87;;;8.87;;
13267;SDS011;6702;47.068;15.458;2023-02-18T15:32:11;10.67;;;9.27;;
13267;SDS011;6702;47.068;15.458;2023-02-18T15:35:21;10.77;;;9.03;;
13267;SDS011;6702;47.068;15.458;2023-02-18T15:38:29;11.17;;;10.00;;
13267;SDS011;6702;47.068;15.458;2023-02-18T15:41:36;9.20;;;8.30;;
13267;SDS011;6702;47.068;15.458;2023-02-18T15:44:45;9.77;;;8.53;;
13267;SDS011;6702;47.068;15.458;2023-02-18T15:47:51;10.23;;;9.23;;
13267;SDS011;6702;47.068;15.458;2023-02-18T15:51:01;9.57;;;8.57;;
13267;SDS011;6702;47.068;15.458;2023-02-18T15:54:18;11.20;;;10.10;;
13267;SDS011;6702;47.068;15.458;2023-02-18T15:57:27;14.83;;;9.73;;
13267;SDS011;6702;47.068;15.458;2023-02-18T16:00:36;14.10;;;9.13;;
13267;SDS011;6702;47.068;15.458;2023-02-18T16:03:43;11.97;;;9.20;;
13267;SDS011;6702;47.068;15.458;2023-02-18T16:06:49;10.60;;;9.57;;
13267;SDS011;6702;47.068;15.458;2023-02-18T16:10:06;9.83;;;8.83;;
13267;SDS011;6702;47.068;15.458;2023-02-18T16:13:16;10.07;;;8.87;;
13267;SDS011;6702;47.068;15.458;2023-02-18T16:16:23;12.33;;;8.90;;
13267;SDS011;6702;47.068;15.458;2023-02-18T16:19:30;13.07;;;10.20;;
13267;SDS011;6702;47.068;15.458;2023-02-18T16:22:35;10.90;;;9.80;;
13267;SDS011;6702;47.068;15.458;2023-02-18T16:25:46;11.43;;;10.00;;
13267;SDS011;6702;47.068;15.458;2023-02-18T16:28:51;11.70;;;10.30;;
13267;SDS011;6702;47.068;15.458;2023-02-18T16:31:57;10.90;;;9.80;;
13267;SDS011;6702;47.068;15.458;2023-02-18T16:35:02;12.40;;;9.90;;
13267;SDS011;6702;47.068;15.458;2023-02-18T16:38:06;25.53;;;13.27;;
13267;SDS011;6702;47.068;15.458;2023-02-18T16:41:15;12.00;;;9.70;;
13267;SDS011;6702;47.068;15.458;2023-02-18T16:44:20;13.73;;;10.00;;
13267;SDS011;6702;47.068;15.458;2023-02-18T16:47:26;23.70;;;14.27;;
13267;SDS011;6702;47.068;15.458;2023-02-18T16:50:32;18.83;;;14.03;;
13267;SDS011;6702;47.068;15.458;2023-02-18T16:53:36;18.70;;;13.97;;
13267;SDS011;6702;47.068;15.458;2023-02-18T16:56:40;15.67;;;13.40;;
13267;SDS011;6702;47.068;15.458;2023-02-18T16:59:44;16.50;;;12.00;;
13267;SDS011;6702;47.068;15.458;2023-02-18T17:02:51;17.07;;;13.10;;
13267;SDS011;6702;47.068;15.458;2023-02-18T17:05:58;20.23;;;15.20;;
13267;SDS011;6702;47.068;15.458;2023-02-18T17:09:05;17.50;;;15.60;;
13267;SDS011;6702;47.068;15.458;2023-02-18T17:12:15;25.40;;;19.60;;
13267;SDS011;6702;47.068;15.458;2023-02-18T17:15:27;21.60;;;15.80;;
13267;SDS011;6702;47.068;15.458;2023-02-18T17:18:35;24.13;;;19.13;;
13267;SDS011;6702;47.068;15.458;2023-02-18T17:21:38;22.10;;;18.00;;
13267;SDS011;6702;47.068;15.458;2023-02-18T17:24:43;26.10;;;20.80;;
13267;SDS011;6702;47.068;15.458;2023-02-18T17:27:47;28.77;;;20.03;;
13267;SDS011;6702;47.068;15.458;2023-02-18T17:30:52;27.07;;;20.20;;
13267;SDS011;6702;47.068;15.458;2023-02-18T17:34:01;24.63;;;21.87;;
13267;SDS011;6702;47.068;15.458;2023-02-18T17:37:09;24.43;;;20.23;;
13267;SDS011;6702;47.068;15.458;2023-02-18T17:40:16;20.73;;;16.80;;
13267;SDS011;6702;47.068;15.458;2023-02-18T17:43:26;21.77;;;18.33;;
13267;SDS011;6702;47.068;15.458;2023-02-18T17:46:30;22.43;;;17.40;;
13267;SDS011;6702;47.068;15.458;2023-02-18T17:49:36;23.27;;;17.27;;
13267;SDS011;6702;47.068;15.458;2023-02-18T17:52:41;18.30;;;16.53;;
13267;SDS011;6702;47.068;15.458;2023-02-18T17:55:46;17.00;;;15.20;;
13267;SDS011;6702;47.068;15.458;2023-02-18T17:58:50;18.13;;;15.07;;
13267;SDS011;6702;47.068;15.458;2023-02-18T18:01:55;18.00;;;15.47;;
13267;SDS011;6702;47.068;15.458;2023-02-18T18:05:01;17.73;;;15.03;;
13267;SDS011;6702;47.068;15.458;2023-02-18T18:08:06;17.50;;;15.70;;
13267;SDS011;6702;47.068;15.458;2023-02-18T18:11:11;19.87;;;17.47;;
13267;SDS011;6702;47.068;15.458;2023-02-18T18:14:16;20.97;;;17.57;;
13267;SDS011;6702;47.068;15.458;2023-02-18T18:17:21;18.83;;;16.70;;
13267;SDS011;6702;47.068;15.458;2023-02-18T18:20:28;21.30;;;16.47;;
13267;SDS011;6702;47.068;15.458;2023-02-18T18:23:34;20.60;;;17.10;;
13267;SDS011;6702;47.068;15.458;2023-02-18T18:26:40;19.93;;;15.77;;
13267;SDS011;6702;47.068;15.458;2023-02-18T18:29:45;46.33;;;28.93;;
13267;SDS011;6702;47.068;15.458;2023-02-18T18:32:49;22.27;;;17.60;;
13267;SDS011;6702;47.068;15.458;2023-02-18T18:35:57;28.10;;;21.00;;
13267;SDS011;6702;47.068;15.458;2023-02-18T18:39:03;59.40;;;41.30;;
13267;SDS011;6702;47.068;15.458;2023-02-18T18:42:08;27.10;;;20.40;;
13267;SDS011;6702;47.068;15.458;2023-02-18T18:45:16;20.30;;;16.20;;
13267;SDS011;6702;47.068;15.458;2023-02-18T18:48:22;17.10;;;14.73;;
13267;SDS011;6702;47.068;15.458;2023-02-18T18:51:29;21.63;;;14.77;;
13267;SDS011;6702;47.068;15.458;2023-02-18T18:54:35;20.90;;;15.40;;
13267;SDS011;6702;47.068;15.458;2023-02-18T18:57:41;19.77;;;15.57;;
13267;SDS011;6702;47.068;15.458;2023-02-18T19:00:48;16.90;;;14.90;;